ADDS METAR Data INFO
IDs: Format: Raw Decoded Include TAF

Data at: 1349 UTC 17 Dec 2017

KGZS 171335Z AUTO 24004KT 8SM FEW047 SCT065 OVC095 04/03 A3025 RMK A01
KGZS 171315Z AUTO 00000KT 8SM FEW080 OVC100 04/03 A3022 RMK A01
KGZS 171255Z AUTO 00000KT 9SM FEW046 SCT060 OVC100 04/02 A3021 RMK A01 P0001
KGZS 171235Z AUTO 00000KT 10SM SCT046 BKN065 OVC075 04/02 A3024 RMK A01
KGZS 171215Z AUTO 03003KT 10SM OVC065 04/02 A3025 RMK A01
KGZS 171155Z AUTO 00000KT 8SM OVC065 04/02 A3026 RMK A01
KGZS 171135Z AUTO 36006KT 10SM OVC065 05/01 A3023 RMK A01
KGZS 171115Z AUTO 00000KT 10SM FEW044 OVC065 04/02 A3020 RMK A01
KGZS 171055Z AUTO 00000KT 10SM SCT044 SCT060 OVC095 04/02 A3018 RMK A01
KGZS 171035Z AUTO 00000KT 10SM OVC095 03/01 A3015 RMK A01
KGZS 171015Z AUTO 00000KT 10SM OVC095 03/01 A3014 RMK A01
KGZS 170955Z AUTO 00000KT 10SM OVC095 02/00 A3014 RMK A01
KGZS 170935Z AUTO 00000KT 10SM OVC100 01/00 A3013 RMK A01
KGZS 170915Z AUTO 00000KT 10SM BKN100 BKN120 01/M00 A3016 RMK A01
KGZS 170855Z AUTO 00000KT 10SM SCT100 BKN120 01/M00 A3017 RMK A01
KGZS 170835Z AUTO 00000KT 10SM BKN110 01/M00 A3017 RMK A01
KGZS 170815Z AUTO 00000KT 10SM OVC110 00/M01 A3017 RMK A01
KGZS 170755Z AUTO 00000KT 10SM OVC110 00/M01 A3019 RMK A01
KGZS 170735Z AUTO 00000KT 10SM BKN110 00/M01 A3019 RMK A01
KGZS 170715Z AUTO 00000KT 10SM SCT120 00/M01 A3020 RMK A01
KGZS 170655Z AUTO 00000KT 10SM FEW120 00/M01 A3020 RMK A01
KGZS 170635Z AUTO 00000KT 10SM FEW120 00/M01 A3021 RMK A01
KGZS 170615Z AUTO 00000KT 10SM FEW120 00/M01 A3022 RMK A01
KGZS 170555Z AUTO 00000KT 10SM CLR M00/M01 A3022 RMK A01
KGZS 170535Z AUTO 00000KT 10SM CLR M00/M01 A3024 RMK A01
KGZS 170515Z AUTO 00000KT 10SM CLR M00/M02 A3023 RMK A01
KGZS 170455Z AUTO 19003KT 10SM CLR M00/M02 A3024 RMK A01
KGZS 170435Z AUTO 00000KT 10SM CLR M01/M02 A3024 RMK A01
KGZS 170415Z AUTO 00000KT 10SM CLR M00/M01 A3025 RMK A01
KGZS 170355Z AUTO 00000KT 10SM CLR M00/M01 A3024 RMK A01
KGZS 170335Z AUTO 00000KT 10SM CLR 01/M01 A3025 RMK A01
KGZS 170315Z AUTO 00000KT 10SM CLR 01/M01 A3024 RMK A01
KGZS 170255Z AUTO 00000KT 10SM CLR 01/M01 A3024 RMK A01
KGZS 170235Z AUTO 00000KT 10SM CLR 00/M01 A3024 RMK A01
KGZS 170215Z AUTO 00000KT 10SM CLR 01/M01 A3023 RMK A01
KGZS 170155Z AUTO 00000KT 10SM CLR 01/M01 A3022 RMK A01
KGZS 170135Z AUTO 00000KT 10SM CLR 01/M01 A3022 RMK A01
KGZS 170115Z AUTO 00000KT 10SM CLR 02/M01 A3022 RMK A01
KGZS 170055Z AUTO 00000KT 10SM CLR 02/M01 A3021 RMK A01
KGZS 170035Z AUTO 00000KT 10SM CLR 02/M01 A3021 RMK A01
KGZS 170015Z AUTO 00000KT 10SM CLR 03/M00 A3021 RMK A01
KGZS 162355Z AUTO 00000KT 10SM FEW031 04/M00 A3021 RMK A01
KGZS 162335Z AUTO 00000KT 10SM CLR 04/M00 A3020 RMK A01
KGZS 162315Z AUTO 00000KT 10SM CLR 05/M00 A3019 RMK A01
KGZS 162255Z AUTO 00000KT 10SM CLR 06/M00 A3019 RMK A01
KGZS 162010Z AUTO 17008KT 10SM CLR 11/M01 A3020 RMK A01
KGZS 161955Z AUTO VRB05KT 10SM CLR 11/M01 A3020 RMK A01
KGZS 161935Z AUTO 20007KT 170V230 10SM CLR 11/M01 A3021 RMK A01
KGZS 161915Z AUTO 19009KT 160V220 10SM CLR 11/M01 A3021 RMK A01
KGZS 161855Z AUTO 20010KT 10SM CLR 10/M01 A3021 RMK A01
KGZS 161835Z AUTO 19005G11KT 10SM CLR 10/M01 A3023 RMK A01
KGZS 161815Z AUTO 22007KT 10SM CLR 10/M01 A3023 RMK A01
KGZS 161755Z AUTO 21008KT 10SM CLR 10/M01 A3025 RMK A01
KGZS 161735Z AUTO 21007G12KT 10SM CLR 09/M00 A3026 RMK A01
KGZS 161715Z AUTO VRB05KT 10SM CLR 08/M01 A3026 RMK A01
KGZS 161655Z AUTO VRB06KT 10SM CLR 08/M01 A3028 RMK A01
KGZS 161635Z AUTO VRB06KT 10SM CLR 07/M01 A3029 RMK A01
KGZS 161615Z AUTO 17006KT 10SM CLR 06/M01 A3029 RMK A01
KGZS 161555Z AUTO 14005KT 10SM CLR 04/M00 A3030 RMK A01
KGZS 161535Z AUTO 00000KT 10SM CLR 03/M01 A3030 RMK A01
KGZS 161515Z AUTO 00000KT 9SM CLR 01/M01 A3030 RMK A01
KGZS 161455Z AUTO 00000KT 8SM CLR M00/M02 A3029 RMK A01
KGZS 161435Z AUTO 00000KT 6SM BR CLR M02/M03 A3028 RMK A01
KGZS 161415Z AUTO 00000KT 6SM BR CLR M03/M04 A3028 RMK A01
KGZS 161355Z AUTO 00000KT 5SM BR CLR M04/M05 A3028 RMK A01
KGZS 161335Z AUTO 00000KT 5SM BR CLR M05/M06 A3027 RMK A01
KGZS 161315Z AUTO 00000KT 5SM BR CLR M06/M06 A3027 RMK A01
KGZS 161255Z AUTO 00000KT 4SM BR CLR M06/M06 A3027 RMK A01
KGZS 161235Z AUTO 00000KT 6SM BR FEW033 M06/M06 A3026 RMK A01
KGZS 161215Z AUTO 00000KT 7SM FEW035 M06/M06 A3025 RMK A01
KGZS 161155Z AUTO 00000KT 6SM BR FEW035 M05/M06 A3025 RMK A01
KGZS 161135Z AUTO 00000KT 6SM BR CLR M06/M06 A3025 RMK A01
KGZS 161115Z AUTO 00000KT 6SM BR FEW037 M06/M06 A3024 RMK A01
KGZS 161055Z AUTO 00000KT 6SM BR SCT037 M06/M07 A3024 RMK A01
KGZS 161035Z AUTO 00000KT 6SM BR SCT038 M06/M06 A3024 RMK A01
KGZS 161015Z AUTO 00000KT 6SM BR BKN036 M06/M06 A3024 RMK A01
KGZS 160955Z AUTO 00000KT 7SM OVC038 M06/M07 A3024 RMK A01
KGZS 160935Z AUTO 00000KT 7SM BKN037 M06/M07 A3025 RMK A01
KGZS 160915Z AUTO 00000KT 6SM BR BKN038 M06/M06 A3025 RMK A01
KGZS 160855Z AUTO 00000KT 6SM BR BKN038 M06/M06 A3024 RMK A01
KGZS 160835Z AUTO 00000KT 6SM BR BKN038 M06/M06 A3025 RMK A01
KGZS 160815Z AUTO 00000KT 5SM BR SCT040 M06/M06 A3025 RMK A01
KGZS 160755Z AUTO 00000KT 6SM BR SCT040 M06/M06 A3025 RMK A01
KGZS 160735Z AUTO 00000KT 6SM BR FEW040 M06/M06 A3024 RMK A01
KGZS 160715Z AUTO 00000KT 8SM SCT040 M06/M06 A3024 RMK A01
KGZS 160655Z AUTO 00000KT 6SM BR SCT038 SCT043 M06/M06 A3024 RMK A01
KGZS 160635Z AUTO 00000KT 7SM SCT041 M06/M06 A3023 RMK A01
KGZS 160615Z AUTO 00000KT 7SM FEW042 M05/M06 A3023 RMK A01
KGZS 160555Z AUTO 00000KT 7SM SCT041 M05/M06 A3023 RMK A01
KGZS 160535Z AUTO 00000KT 8SM FEW042 M05/M06 A3024 RMK A01
KGZS 160515Z AUTO 00000KT 8SM FEW041 M05/M06 A3024 RMK A01
KGZS 160455Z AUTO 00000KT 10SM CLR M05/M06 A3024 RMK A01
KGZS 160435Z AUTO 00000KT 10SM CLR M05/M06 A3024 RMK A01
KGZS 160415Z AUTO 00000KT 10SM CLR M05/M06 A3024 RMK A01
KGZS 160355Z AUTO 00000KT 10SM FEW042 M05/M05 A3023 RMK A01
KGZS 160335Z AUTO 00000KT 10SM FEW042 M05/M06 A3023 RMK A01
KGZS 160315Z AUTO 00000KT 10SM CLR M04/M05 A3023 RMK A01
KGZS 160255Z AUTO 00000KT 10SM CLR M04/M05 A3022 RMK A01
KGZS 160235Z AUTO 00000KT 10SM CLR M04/M05 A3023 RMK A01
KGZS 160215Z AUTO 00000KT 10SM CLR M04/M05 A3022 RMK A01
KGZS 160155Z AUTO 00000KT 10SM CLR M04/M05 A3022 RMK A01